Time;durP1;ratioP1;P1;durP2;ratioP2;P2;SDS_P1;SDS_P2;PMS_P1;PMS_P2;Temp;Humidity;BMP_temperature;BMP_pressure;BME280_temperature;BME280_humidity;BME280_pressure;Samples;Min_cycle;Max_cycle;Signal;HPM_P1;HPM_P2
2023/05/30 00:00:46;;;;;;;22.10;6.00;;;;;;;14.95;62.43;100985.67;107369;1254;97893;-60
2023/05/30 00:03:30;;;;;;;14.10;4.70;;;;;;;14.93;61.55;100982.73;107332;1254;97870;-59
2023/05/30 00:05:58;;;;;;;16.40;5.50;;;;;;;14.91;60.95;100980.44;107397;1254;111775;-59
2023/05/30 00:08:27;;;;;;;15.20;4.90;;;;;;;14.90;60.76;100981.95;107480;1257;109592;-62
2023/05/30 00:10:56;;;;;;;14.10;4.70;;;;;;;14.93;60.68;100976.30;107338;1253;106907;-61
2023/05/30 00:13:28;;;;;;;16.60;5.30;;;;;;;14.96;60.57;100972.54;107459;1254;97726;-59
2023/05/30 00:15:57;;;;;;;22.40;5.50;;;;;;;14.98;60.67;100975.02;107555;1253;97822;-59
2023/05/30 00:18:32;;;;;;;24.40;6.10;;;;;;;15.00;60.56;100977.14;107518;1253;111820;-59
2023/05/30 00:21:10;;;;;;;16.90;5.10;;;;;;;15.01;60.50;100976.91;107468;1254;110735;-59
2023/05/30 00:23:39;;;;;;;15.40;5.50;;;;;;;14.98;60.41;100977.33;107513;1254;108700;-59
2023/05/30 00:26:08;;;;;;;13.60;5.30;;;;;;;14.98;60.04;100978.45;107532;1253;97821;-60
2023/05/30 00:28:38;;;;;;;14.20;4.70;;;;;;;14.95;59.56;100985.60;107452;1254;97726;-60
2023/05/30 00:31:07;;;;;;;11.60;4.90;;;;;;;14.90;59.00;100985.66;107307;1259;110977;-57
2023/05/30 00:33:35;;;;;;;13.60;4.90;;;;;;;14.83;58.86;100989.70;107456;1254;109859;-60
2023/05/30 00:36:04;;;;;;;10.60;6.00;;;;;;;14.80;58.75;100986.22;107327;1253;107488;-65
2023/05/30 00:38:32;;;;;;;16.40;6.90;;;;;;;14.80;59.01;100987.88;107417;1254;97901;-62
2023/05/30 00:41:02;;;;;;;14.60;6.00;;;;;;;14.77;59.00;100994.33;107502;1253;97866;-60
2023/05/30 00:43:30;;;;;;;10.60;4.40;;;;;;;14.74;59.03;100996.64;107433;1257;111817;-60
2023/05/30 00:46:01;;;;;;;15.50;5.00;;;;;;;14.73;58.74;100996.75;107434;1254;108741;-58
2023/05/30 00:48:29;;;;;;;13.60;4.90;;;;;;;14.69;58.67;100998.05;107355;1254;108421;-58
2023/05/30 00:50:58;;;;;;;15.10;5.80;;;;;;;14.62;58.67;100992.73;107335;1254;97922;-61
2023/05/30 00:53:28;;;;;;;12.20;4.70;;;;;;;14.55;58.71;101001.73;107440;1253;98350;-59
2023/05/30 00:55:58;;;;;;;14.80;4.80;;;;;;;14.52;58.67;101005.87;107386;1253;111085;-59
2023/05/30 00:58:26;;;;;;;11.30;4.90;;;;;;;14.50;58.74;101003.77;107338;1254;109684;-60
2023/05/30 01:00:56;;;;;;;14.30;4.90;;;;;;;14.48;58.85;101000.46;107332;1254;108598;-60
2023/05/30 01:03:32;;;;;;;14.80;4.10;;;;;;;14.46;58.82;100996.02;107369;1254;97831;-59
2023/05/30 01:06:03;;;;;;;9.40;5.00;;;;;;;14.44;58.89;100998.20;107415;1254;97824;-59
2023/05/30 01:08:32;;;;;;;8.70;4.20;;;;;;;14.42;59.00;101002.71;107412;1256;112338;-60
2023/05/30 01:11:26;;;;;;;10.30;4.50;;;;;;;14.38;58.80;101005.63;107427;1254;109145;-61
2023/05/30 01:14:34;;;;;;;9.40;4.50;;;;;;;14.36;58.84;101008.71;107257;1254;107684;-59
2023/05/30 01:17:14;;;;;;;12.00;5.00;;;;;;;14.34;59.02;101007.08;107388;1254;97848;-60
2023/05/30 01:20:07;;;;;;;20.70;5.10;;;;;;;14.33;59.36;101006.49;107394;1254;98354;-59
2023/05/30 01:23:05;;;;;;;14.70;5.10;;;;;;;14.34;59.42;101003.17;107398;1254;111901;-61
2023/05/30 01:26:02;;;;;;;15.50;5.50;;;;;;;14.33;59.60;101001.31;107367;1254;108763;-58
2023/05/30 01:28:37;;;;;;;11.40;4.20;;;;;;;14.28;59.98;100997.11;107412;1254;108790;-60
2023/05/30 01:31:08;;;;;;;18.70;5.30;;;;;;;14.20;59.96;100995.38;107442;1253;97926;-60
2023/05/30 01:33:38;;;;;;;9.90;4.50;;;;;;;14.15;60.56;100996.77;107395;1254;98879;-61
2023/05/30 01:36:08;;;;;;;13.20;4.30;;;;;;;14.13;60.68;100998.55;107264;1255;111290;-61
2023/05/30 01:38:37;;;;;;;8.00;3.80;;;;;;;14.12;60.99;101001.63;107264;1254;108678;-60
2023/05/30 01:41:17;;;;;;;12.20;4.70;;;;;;;14.12;61.28;101005.08;107413;1254;107653;-61
2023/05/30 01:43:57;;;;;;;12.80;3.90;;;;;;;14.09;61.34;101004.40;107337;1254;97806;-59
2023/05/30 01:46:31;;;;;;;9.60;4.40;;;;;;;14.10;61.32;101012.60;107417;1253;97742;-60
2023/05/30 01:49:02;;;;;;;11.10;4.30;;;;;;;14.13;61.36;101010.35;107335;1254;111849;-60
2023/05/30 01:51:52;;;;;;;15.00;5.30;;;;;;;14.13;61.11;101013.02;107437;1254;109418;-59
2023/05/30 01:54:21;;;;;;;15.00;5.10;;;;;;;14.09;61.20;101013.56;107473;1254;107629;-58
2023/05/30 01:56:57;;;;;;;8.70;4.00;;;;;;;14.07;61.28;101012.73;107295;1254;97759;-59
2023/05/30 01:59:26;;;;;;;12.50;4.20;;;;;;;14.05;61.26;101009.13;107298;1254;97810;-58
2023/05/30 02:01:56;;;;;;;13.10;4.80;;;;;;;13.98;60.99;101008.52;107331;1254;110859;-61
2023/05/30 02:04:25;;;;;;;15.30;4.00;;;;;;;13.98;61.17;101010.95;107456;1254;109389;-61
2023/05/30 02:06:53;;;;;;;10.90;4.10;;;;;;;13.99;61.10;101011.30;107303;1254;107481;-60
2023/05/30 02:09:23;;;;;;;11.80;4.00;;;;;;;14.01;61.09;101009.38;107413;1254;97608;-60
2023/05/30 02:11:51;;;;;;;14.30;4.30;;;;;;;14.00;61.25;101009.25;107386;1254;98351;-60
2023/05/30 02:14:22;;;;;;;9.60;4.90;;;;;;;13.94;60.69;101015.77;107440;1254;111768;-60
2023/05/30 02:16:50;;;;;;;11.00;4.20;;;;;;;13.91;60.69;101014.52;107418;1254;108854;-59
2023/05/30 02:19:19;;;;;;;15.00;4.70;;;;;;;13.88;60.72;101014.39;107405;1254;105949;-61
2023/05/30 02:21:48;;;;;;;14.90;4.50;;;;;;;13.85;60.73;101019.16;107385;1254;97857;-60
2023/05/30 02:24:16;;;;;;;14.00;5.10;;;;;;;13.87;60.87;101019.95;107380;1257;97711;-60
2023/05/30 02:26:45;;;;;;;11.40;4.30;;;;;;;13.89;60.92;101021.30;107334;1254;110983;-60
2023/05/30 02:29:13;;;;;;;7.90;4.50;;;;;;;13.87;60.77;101023.52;107425;1254;109287;-59
2023/05/30 02:31:42;;;;;;;7.40;3.90;;;;;;;13.86;60.72;101023.77;107437;1254;107261;-61
2023/05/30 02:34:11;;;;;;;14.80;4.90;;;;;;;13.87;60.67;101022.39;107415;1254;97817;-58
2023/05/30 02:36:39;;;;;;;12.30;4.50;;;;;;;13.87;60.70;101021.54;107288;1254;98360;-63
2023/05/30 02:39:11;;;;;;;14.50;4.50;;;;;;;13.84;60.58;101025.23;107392;1254;111829;-59
2023/05/30 02:41:42;;;;;;;13.20;4.50;;;;;;;13.79;60.57;101026.28;107355;1254;110024;-60
2023/05/30 02:44:10;;;;;;;12.40;4.90;;;;;;;13.75;60.39;101027.73;107336;1259;107526;-60
2023/05/30 02:46:41;;;;;;;11.00;4.80;;;;;;;13.74;60.41;101028.23;107405;1254;97915;-60
2023/05/30 02:49:11;;;;;;;12.00;5.20;;;;;;;13.68;60.35;101027.54;107403;1254;97731;-59
2023/05/30 02:51:42;;;;;;;15.90;4.20;;;;;;;13.62;60.60;101030.85;107461;1257;111287;-59
2023/05/30 02:54:13;;;;;;;7.90;4.10;;;;;;;13.50;60.83;101033.80;107354;1254;109468;-60
2023/05/30 02:57:06;;;;;;;15.40;5.40;;;;;;;13.36;61.02;101031.98;107111;1254;108084;-59
2023/05/30 03:00:00;;;;;;;;;;;;;;;13.34;61.13;101032.92;107438;1254;97816;-63
2023/05/30 03:02:28;;;;;;;12.40;4.40;;;;;;;13.35;61.33;101034.12;107483;1254;97822;-59
2023/05/30 03:04:57;;;;;;;10.50;4.50;;;;;;;13.37;61.11;101036.27;107467;1253;111333;-61
2023/05/30 03:07:28;;;;;;;12.00;4.00;;;;;;;13.38;61.30;101042.27;107422;1254;109062;-60
2023/05/30 03:09:57;;;;;;;16.90;4.70;;;;;;;13.37;61.32;101046.91;107353;1254;106955;-61
2023/05/30 03:12:26;;;;;;;22.60;10.90;;;;;;;13.29;61.25;101047.44;107438;1254;97708;-59
2023/05/30 03:14:54;;;;;;;13.20;5.20;;;;;;;13.25;61.45;101041.58;107389;1254;97740;-61
2023/05/30 03:17:22;;;;;;;18.00;5.40;;;;;;;13.24;61.46;101049.37;107371;1258;111446;-60
2023/05/30 03:19:51;;;;;;;19.40;6.70;;;;;;;13.26;61.45;101054.36;107339;1254;109811;-61
2023/05/30 03:22:21;;;;;;;13.30;5.10;;;;;;;13.30;61.22;101051.00;107357;1258;107455;-59
2023/05/30 03:24:49;;;;;;;11.70;4.90;;;;;;;13.31;61.28;101055.34;107343;1254;98830;-62
2023/05/30 03:27:18;;;;;;;20.90;5.80;;;;;;;13.33;61.15;101053.74;107377;1254;98357;-61
2023/05/30 03:29:48;;;;;;;16.30;5.00;;;;;;;13.37;60.98;101048.14;107400;1254;110765;-60
2023/05/30 03:32:17;;;;;;;17.20;4.90;;;;;;;13.42;60.98;101052.15;107411;1254;108604;-60
2023/05/30 03:34:46;;;;;;;15.60;5.00;;;;;;;13.49;60.75;101053.35;107388;1254;108116;-58
2023/05/30 03:37:16;;;;;;;13.80;4.80;;;;;;;13.50;60.58;101058.61;107410;1254;97847;-59
2023/05/30 03:39:44;;;;;;;10.20;4.50;;;;;;;13.52;60.32;101058.80;107377;1259;97932;-60
2023/05/30 03:42:13;;;;;;;14.60;5.40;;;;;;;13.51;60.23;101054.63;107427;1254;112304;-60
2023/05/30 03:44:41;;;;;;;22.30;4.90;;;;;;;13.50;60.28;101056.30;107344;1254;110005;-59
2023/05/30 03:47:10;;;;;;;16.00;5.40;;;;;;;13.52;60.45;101057.06;107430;1257;108464;-59
2023/05/30 03:49:39;;;;;;;12.10;5.30;;;;;;;13.53;60.17;101061.11;107403;1254;97813;-61
2023/05/30 03:52:07;;;;;;;16.20;5.60;;;;;;;13.56;60.15;101059.46;107302;1254;97890;-61
2023/05/30 03:54:36;;;;;;;22.20;4.80;;;;;;;13.61;60.17;101060.79;107324;1254;111340;-59
2023/05/30 03:57:06;;;;;;;11.70;4.70;;;;;;;13.67;60.06;101057.34;107201;1254;109662;-61
2023/05/30 03:59:37;;;;;;;15.00;5.10;;;;;;;13.74;59.73;101062.45;107370;1258;107705;-61
2023/05/30 04:02:05;;;;;;;15.50;5.00;;;;;;;13.76;59.67;101064.04;107298;1254;97806;-59
2023/05/30 04:04:33;;;;;;;13.20;5.10;;;;;;;13.79;59.48;101065.36;107364;1258;100173;-60
2023/05/30 04:07:02;;;;;;;13.10;4.80;;;;;;;13.86;59.34;101068.45;107446;1259;111538;-61
2023/05/30 04:09:34;;;;;;;23.90;4.90;;;;;;;13.92;59.27;101072.58;107394;1254;109467;-61
2023/05/30 04:12:10;;;;;;;11.40;5.10;;;;;;;13.95;59.10;101074.45;107167;1254;108998;-62
2023/05/30 04:14:40;;;;;;;13.30;4.40;;;;;;;14.02;58.94;101077.23;107370;1254;97826;-61
2023/05/30 04:17:08;;;;;;;16.60;5.50;;;;;;;14.06;58.71;101073.90;107399;1254;97749;-60
2023/05/30 04:19:37;;;;;;;21.40;4.80;;;;;;;14.10;58.33;101081.45;107400;1254;112017;-61
2023/05/30 04:22:05;;;;;;;11.00;4.40;;;;;;;14.16;58.26;101085.77;107429;1254;108957;-62
2023/05/30 04:24:34;;;;;;;18.20;5.20;;;;;;;14.22;58.01;101092.20;107333;1254;107874;-61
2023/05/30 04:27:02;;;;;;;17.90;5.80;;;;;;;14.27;57.93;101090.42;107199;1254;97833;-60
2023/05/30 04:29:32;;;;;;;20.20;9.60;;;;;;;14.28;57.58;101089.09;107375;1254;97832;-60
2023/05/30 04:32:01;;;;;;;14.80;4.90;;;;;;;14.26;57.45;101086.74;107385;1254;111641;-59
2023/05/30 04:34:29;;;;;;;13.00;4.90;;;;;;;14.26;57.38;101085.85;107405;1254;109747;-59
2023/05/30 04:37:00;;;;;;;12.80;5.20;;;;;;;14.32;57.11;101085.47;107360;1254;107527;-60
2023/05/30 04:39:28;;;;;;;13.10;4.40;;;;;;;14.37;56.95;101088.23;107389;1254;97941;-61
2023/05/30 04:41:57;;;;;;;11.70;4.40;;;;;;;14.41;56.83;101088.89;107354;1254;98287;-60
2023/05/30 04:44:25;;;;;;;16.00;4.90;;;;;;;14.46;56.85;101087.40;107334;1254;112163;-61
2023/05/30 04:46:54;;;;;;;16.30;4.40;;;;;;;14.49;56.88;101091.59;107302;1254;109891;-60
2023/05/30 04:49:23;;;;;;;9.70;4.90;;;;;;;14.52;56.57;101092.70;107276;1259;107781;-60
2023/05/30 04:51:51;;;;;;;17.70;4.90;;;;;;;14.51;56.84;101089.55;107258;1254;98181;-62
2023/05/30 04:54:20;;;;;;;20.90;5.30;;;;;;;14.53;56.91;101091.96;107369;1254;98478;-60
2023/05/30 04:56:49;;;;;;;17.40;5.30;;;;;;;14.60;56.81;101098.23;107296;1254;111761;-62
2023/05/30 04:59:18;;;;;;;27.00;5.40;;;;;;;14.68;56.74;101093.23;107363;1254;109540;-62
2023/05/30 05:01:48;;;;;;;13.80;4.30;;;;;;;14.78;56.66;101090.98;107298;1254;108727;-62
2023/05/30 05:04:17;;;;;;;20.10;4.70;;;;;;;14.86;56.49;101088.91;107336;1254;97808;-61
2023/05/30 05:06:45;;;;;;;15.30;4.80;;;;;;;14.92;56.32;101090.55;107369;1254;97861;-61
2023/05/30 05:09:13;;;;;;;16.70;4.60;;;;;;;14.94;56.15;101089.04;107413;1254;112718;-60
2023/05/30 05:11:42;;;;;;;22.30;5.50;;;;;;;15.02;56.24;101090.05;107363;1254;109043;-61
2023/05/30 05:14:10;;;;;;;13.60;5.00;;;;;;;15.10;56.39;101092.23;107334;1254;106568;-61
2023/05/30 05:16:38;;;;;;;15.40;4.70;;;;;;;15.18;56.38;101091.99;107402;1259;97953;-64
2023/05/30 05:19:08;;;;;;;22.90;5.30;;;;;;;15.25;56.44;101088.95;107403;1255;97811;-61
2023/05/30 05:21:42;;;;;;;12.30;4.20;;;;;;;15.30;56.25;101091.80;107167;1254;111336;-61
2023/05/30 05:24:11;;;;;;;22.60;5.10;;;;;;;15.37;56.08;101097.98;107317;1254;109693;-62
2023/05/30 05:26:40;;;;;;;20.80;5.70;;;;;;;15.44;55.99;101100.04;107399;1254;107225;-60
2023/05/30 05:29:09;;;;;;;13.20;4.80;;;;;;;15.50;55.73;101101.72;107283;1259;97988;-60
2023/05/30 05:31:38;;;;;;;15.30;4.60;;;;;;;15.57;55.37;101103.92;107448;1254;98386;-63
2023/05/30 05:34:06;;;;;;;13.20;4.80;;;;;;;15.63;55.25;101104.50;107306;1254;112133;-59
2023/05/30 05:36:35;;;;;;;12.10;4.30;;;;;;;15.71;55.20;101103.33;107424;1254;110201;-60
2023/05/30 05:39:03;;;;;;;21.90;5.50;;;;;;;15.80;55.18;101105.29;107416;1257;108827;-60
2023/05/30 05:41:33;;;;;;;13.00;3.70;;;;;;;15.86;55.08;101103.21;107424;1254;97827;-61
2023/05/30 05:44:02;;;;;;;15.10;5.40;;;;;;;15.95;54.96;101101.39;107371;1257;98389;-61
2023/05/30 05:46:30;;;;;;;17.10;5.00;;;;;;;16.04;54.85;101100.48;107429;1253;111913;-61
2023/05/30 05:48:59;;;;;;;13.80;5.80;;;;;;;16.11;54.82;101099.51;107494;1254;109282;-60
2023/05/30 05:51:27;;;;;;;21.80;4.70;;;;;;;16.16;54.62;101098.48;107462;1257;108065;-60
2023/05/30 05:53:56;;;;;;;13.30;4.70;;;;;;;16.19;54.54;101098.45;107394;1254;97893;-60
2023/05/30 05:56:24;;;;;;;7.70;4.50;;;;;;;16.22;54.59;101099.37;107444;1253;97832;-62
2023/05/30 05:58:52;;;;;;;15.70;4.50;;;;;;;16.29;54.67;101098.30;107452;1253;112292;-61
2023/05/30 06:01:21;;;;;;;18.30;4.90;;;;;;;16.37;54.71;101097.85;107344;1254;111101;-61
2023/05/30 06:03:50;;;;;;;13.00;4.40;;;;;;;16.44;54.73;101093.48;107428;1257;107815;-61
2023/05/30 06:06:18;;;;;;;14.30;4.30;;;;;;;16.51;54.80;101095.77;107392;1254;98363;-60
2023/05/30 06:08:47;;;;;;;12.80;4.30;;;;;;;16.59;54.80;101098.88;107437;1253;97847;-61
2023/05/30 06:11:15;;;;;;;12.40;5.60;;;;;;;16.62;54.67;101100.88;107439;1254;111258;-60
2023/05/30 06:13:44;;;;;;;19.40;5.30;;;;;;;16.68;54.70;101102.95;107395;1254;110086;-62
2023/05/30 06:16:12;;;;;;;23.30;5.70;;;;;;;16.73;54.96;101101.48;107410;1254;107834;-60
2023/05/30 06:18:42;;;;;;;15.50;5.90;;;;;;;16.80;54.88;101098.92;107061;1254;97825;-65
2023/05/30 06:21:13;;;;;;;16.90;5.30;;;;;;;16.89;54.80;101098.21;107325;1254;98376;-60
2023/05/30 06:23:42;;;;;;;9.60;4.80;;;;;;;17.00;54.66;101093.17;107460;1257;111295;-61
2023/05/30 06:26:10;;;;;;;11.50;5.20;;;;;;;17.17;54.66;101094.52;107299;1254;109434;-61
2023/05/30 06:28:40;;;;;;;26.60;6.80;;;;;;;17.33;54.51;101098.95;107375;1254;108592;-62
2023/05/30 06:31:09;;;;;;;26.80;8.00;;;;;;;17.45;54.05;101100.52;107420;1253;97973;-63
2023/05/30 06:33:46;;;;;;;23.40;7.50;;;;;;;17.58;53.89;101096.14;107279;1254;97775;-62
2023/05/30 06:36:18;;;;;;;15.10;7.30;;;;;;;17.75;53.80;101098.40;107349;1257;111235;-61
2023/05/30 06:38:46;;;;;;;18.20;6.30;;;;;;;17.88;53.63;101095.80;107431;1254;109083;-60
2023/05/30 06:41:15;;;;;;;12.50;6.60;;;;;;;17.97;53.42;101101.90;107410;1254;107725;-61
2023/05/30 06:43:43;;;;;;;15.50;5.90;;;;;;;18.12;53.20;101101.49;107380;1257;97845;-64
2023/05/30 06:46:12;;;;;;;20.10;6.00;;;;;;;18.27;52.53;101103.23;107473;1254;97729;-63
2023/05/30 06:48:41;;;;;;;20.20;6.20;;;;;;;18.37;52.62;101101.88;107442;1254;111476;-60
2023/05/30 06:51:10;;;;;;;20.90;6.50;;;;;;;18.47;52.39;101104.13;107521;1254;110058;-61
2023/05/30 06:53:38;;;;;;;19.80;6.60;;;;;;;18.54;52.52;101097.63;107483;1254;108994;-62
2023/05/30 06:56:07;;;;;;;28.00;6.70;;;;;;;18.61;52.21;101099.77;107434;1254;97726;-60
2023/05/30 06:58:35;;;;;;;23.50;6.90;;;;;;;18.68;52.50;101102.55;107315;1254;98346;-60
2023/05/30 07:01:03;;;;;;;28.90;6.70;;;;;;;18.78;52.37;101105.91;107389;1257;111714;-61
2023/05/30 07:03:32;;;;;;;15.60;6.50;;;;;;;18.87;52.22;101104.54;107412;1253;109526;-60
2023/05/30 07:06:01;;;;;;;14.90;6.80;;;;;;;18.97;51.81;101103.02;107417;1254;107526;-60
2023/05/30 07:08:29;;;;;;;18.20;6.70;;;;;;;19.08;51.71;101106.23;107284;1259;97956;-62
2023/05/30 07:10:58;;;;;;;13.50;6.00;;;;;;;19.16;51.41;101100.73;107402;1254;97692;-60
2023/05/30 07:13:27;;;;;;;16.90;6.20;;;;;;;19.21;51.09;101103.75;107290;1254;111169;-63
2023/05/30 07:15:55;;;;;;;13.00;5.50;;;;;;;19.28;51.22;101100.18;107435;1255;109572;-61
2023/05/30 07:18:23;;;;;;;19.70;5.70;;;;;;;19.39;50.95;101095.98;107396;1254;108573;-63
2023/05/30 07:20:52;;;;;;;17.20;6.20;;;;;;;19.45;50.96;101090.91;107344;1254;97872;-62
2023/05/30 07:23:20;;;;;;;20.30;6.20;;;;;;;19.49;50.88;101084.36;107445;1254;98363;-61
2023/05/30 07:25:48;;;;;;;14.60;5.40;;;;;;;19.58;51.30;101083.27;107380;1254;111065;-61
2023/05/30 07:28:20;;;;;;;21.40;6.10;;;;;;;19.69;51.46;101085.10;107371;1254;109170;-60
2023/05/30 07:30:49;;;;;;;12.40;5.70;;;;;;;19.79;51.33;101085.79;107416;1254;108629;-61
2023/05/30 07:33:17;;;;;;;25.10;6.50;;;;;;;19.89;50.83;101081.06;107402;1254;97851;-63
2023/05/30 07:35:46;;;;;;;21.80;5.70;;;;;;;19.97;50.78;101080.46;107448;1254;97713;-62
2023/05/30 07:38:15;;;;;;;18.70;5.00;;;;;;;20.07;50.99;101076.05;107356;1257;111881;-62
2023/05/30 07:40:43;;;;;;;18.50;5.00;;;;;;;20.18;50.31;101077.10;107344;1254;109641;-61
2023/05/30 07:43:12;;;;;;;12.20;4.60;;;;;;;20.25;50.16;101076.01;107386;1254;107682;-59
2023/05/30 07:45:40;;;;;;;18.50;4.50;;;;;;;20.35;50.01;101075.32;107434;1257;97756;-61
2023/05/30 07:48:09;;;;;;;23.20;5.00;;;;;;;20.44;49.55;101074.70;107402;1254;97941;-61
2023/05/30 07:50:38;;;;;;;10.80;5.00;;;;;;;20.53;49.56;101077.77;107422;1254;113054;-62
2023/05/30 07:53:07;;;;;;;17.00;5.00;;;;;;;20.63;49.48;101079.96;107394;1254;109695;-60
2023/05/30 07:55:36;;;;;;;14.30;5.20;;;;;;;20.72;49.32;101079.95;107300;1254;108155;-60
2023/05/30 07:58:04;;;;;;;16.50;4.30;;;;;;;20.80;49.45;101076.20;107442;1254;97694;-61
2023/05/30 08:00:32;;;;;;;13.40;5.20;;;;;;;20.92;49.58;101078.48;106671;1254;1039207;-60
2023/05/30 08:03:00;;;;;;;17.10;5.10;;;;;;;21.03;49.51;101077.45;107433;1254;111627;-61
2023/05/30 08:05:29;;;;;;;8.20;4.00;;;;;;;21.17;49.23;101078.44;107458;1254;109338;-62
2023/05/30 08:07:58;;;;;;;14.90;3.70;;;;;;;21.35;49.05;101077.24;107347;1254;108405;-61
2023/05/30 08:10:27;;;;;;;10.50;3.70;;;;;;;21.51;48.11;101068.94;107432;1254;97832;-62
2023/05/30 08:12:55;;;;;;;10.40;4.00;;;;;;;21.69;47.79;101071.42;107463;1254;98520;-61
2023/05/30 08:15:24;;;;;;;9.00;3.40;;;;;;;21.80;46.45;101071.05;107427;1254;111931;-61
2023/05/30 08:17:56;;;;;;;8.30;3.30;;;;;;;21.90;45.69;101066.84;107456;1254;109325;-62
2023/05/30 08:20:25;;;;;;;11.50;3.40;;;;;;;22.02;45.83;101065.45;107430;1254;106724;-62
2023/05/30 08:22:53;;;;;;;12.60;3.70;;;;;;;22.12;45.42;101062.79;107402;1254;97829;-61
2023/05/30 08:25:32;;;;;;;9.40;3.40;;;;;;;22.21;44.87;101064.88;107442;1253;97819;-60
2023/05/30 08:28:02;;;;;;;13.10;4.70;;;;;;;22.32;44.88;101062.50;107416;1255;111827;-61
2023/05/30 08:30:31;;;;;;;8.40;4.10;;;;;;;22.51;44.55;101061.65;107420;1254;109914;-61
2023/05/30 08:33:02;;;;;;;9.90;3.80;;;;;;;22.69;44.22;101056.23;107403;1254;106568;-61
2023/05/30 08:35:31;;;;;;;6.90;3.50;;;;;;;22.84;44.51;101060.87;107304;1254;97864;-61
2023/05/30 08:38:00;;;;;;;8.60;3.30;;;;;;;22.95;43.99;101057.15;107466;1254;99160;-61
2023/05/30 08:40:28;;;;;;;12.20;4.20;;;;;;;22.98;43.38;101058.38;107425;1254;112303;-64
2023/05/30 08:42:57;;;;;;;11.70;4.60;;;;;;;23.10;43.02;101059.61;107291;1254;109171;-61
2023/05/30 08:45:25;;;;;;;13.40;3.50;;;;;;;23.26;43.13;101054.36;107390;1256;107606;-62
2023/05/30 08:47:58;;;;;;;8.10;4.20;;;;;;;23.45;42.33;101050.31;107369;1254;97825;-62
2023/05/30 08:50:28;;;;;;;8.10;3.70;;;;;;;23.66;41.43;101050.75;107407;1258;97924;-62
2023/05/30 08:53:06;;;;;;;8.30;4.40;;;;;;;23.83;40.81;101046.47;107433;1254;111308;-61
2023/05/30 08:55:40;;;;;;;9.90;4.70;;;;;;;23.84;40.81;101047.38;107478;1254;108842;-66
2023/05/30 08:58:36;;;;;;;12.10;3.90;;;;;;;23.92;40.59;101047.98;107347;1255;108197;-60
2023/05/30 09:01:06;;;;;;;12.90;4.00;;;;;;;24.12;40.50;101043.49;107397;1254;97829;-62
2023/05/30 09:03:37;;;;;;;10.10;4.10;;;;;;;24.42;39.17;101048.63;107464;1254;98472;-63
2023/05/30 09:06:07;;;;;;;18.70;3.80;;;;;;;24.73;39.00;101049.34;107309;1254;109677;-62
2023/05/30 09:08:36;;;;;;;14.40;3.60;;;;;;;25.01;38.83;101043.74;107362;1254;110030;-61
2023/05/30 09:11:05;;;;;;;16.50;3.60;;;;;;;25.00;36.97;101046.50;107429;1254;107010;-61
2023/05/30 09:13:34;;;;;;;13.60;3.50;;;;;;;24.99;36.80;101043.92;107416;1254;97939;-61
2023/05/30 09:16:03;;;;;;;7.20;3.10;;;;;;;25.04;36.65;101043.03;107457;1254;97828;-61
2023/05/30 09:18:35;;;;;;;10.90;3.00;;;;;;;25.33;36.53;101039.54;107480;1254;110724;-61
2023/05/30 09:21:04;;;;;;;5.70;2.50;;;;;;;25.74;36.43;101038.50;107301;1254;107785;-61
2023/05/30 09:23:33;;;;;;;11.20;3.40;;;;;;;26.08;34.58;101041.45;107393;1254;108677;-61
2023/05/30 09:26:05;;;;;;;12.10;3.20;;;;;;;26.27;34.89;101042.39;107356;1258;97982;-61
2023/05/30 09:28:35;;;;;;;;;;;;;;;26.61;35.26;101038.55;107435;1254;97812;-62
2023/05/30 09:31:03;;;;;;;13.40;2.80;;;;;;;26.71;34.46;101046.41;107423;1257;110517;-61
2023/05/30 09:33:40;;;;;;;10.30;3.50;;;;;;;26.81;33.72;101046.25;107443;1254;109689;-61
2023/05/30 09:36:12;;;;;;;11.00;4.70;;;;;;;26.85;34.25;101042.36;107391;1254;108391;-63
2023/05/30 09:38:51;;;;;;;7.90;2.90;;;;;;;26.97;33.37;101036.59;107343;1254;97863;-62
2023/05/30 09:41:20;;;;;;;12.80;3.00;;;;;;;27.13;32.70;101036.20;107441;1257;98348;-61
2023/05/30 09:43:57;;;;;;;11.60;3.00;;;;;;;27.10;33.79;101035.17;107491;1254;112401;-58
2023/05/30 09:46:30;;;;;;;7.30;3.50;;;;;;;27.16;34.23;101036.66;107538;1254;109826;-60
2023/05/30 09:48:59;;;;;;;;;;;;;;;27.60;33.78;101031.10;107475;1254;107692;-61
2023/05/30 09:51:31;;;;;;;10.20;3.30;;;;;;;28.12;33.10;101024.24;107453;1254;97857;-61
2023/05/30 09:54:02;;;;;;;12.30;3.70;;;;;;;28.71;32.01;101022.86;107433;1254;97809;-60
2023/05/30 09:56:39;;;;;;;9.90;2.90;;;;;;;29.09;30.54;101019.73;107445;1256;111160;-59
2023/05/30 09:59:13;;;;;;;13.10;2.80;;;;;;;29.18;30.12;101017.31;107369;1254;109832;-61
2023/05/30 10:01:47;;;;;;;11.50;2.30;;;;;;;29.18;29.89;101017.64;107425;1259;107763;-61
2023/05/30 10:04:19;;;;;;;11.40;2.60;;;;;;;28.80;29.25;101016.02;107455;1254;97921;-62
2023/05/30 10:06:51;;;;;;;17.30;2.50;;;;;;;28.43;30.29;101015.52;107531;1254;97704;-62
2023/05/30 10:09:21;;;;;;;8.70;2.80;;;;;;;28.18;29.76;101012.48;107516;1254;112683;-61
2023/05/30 10:11:51;;;;;;;5.70;2.70;;;;;;;27.96;30.11;101013.09;107480;1254;108761;-60
2023/05/30 10:14:20;;;;;;;6.70;2.80;;;;;;;27.80;29.86;101009.63;107485;1254;108643;-60
2023/05/30 10:17:00;;;;;;;9.40;2.70;;;;;;;28.09;29.98;101007.32;107523;1254;97812;-60
2023/05/30 10:19:46;;;;;;;11.00;2.80;;;;;;;28.63;29.91;101006.56;107456;1254;98286;-61
2023/05/30 10:22:16;;;;;;;9.40;2.50;;;;;;;29.75;28.79;101003.66;107418;1254;111227;-60
2023/05/30 10:24:47;;;;;;;3.40;2.20;;;;;;;30.65;27.10;100997.11;107457;1254;109531;-60
2023/05/30 10:27:24;;;;;;;5.60;2.50;;;;;;;31.32;26.56;100994.97;107464;1254;108452;-62
2023/05/30 10:30:07;;;;;;;9.00;3.10;;;;;;;31.28;26.19;100997.29;107417;1253;97831;-61
2023/05/30 10:32:38;;;;;;;9.50;3.30;;;;;;;30.73;27.15;101001.14;107421;1257;97717;-62
2023/05/30 10:35:15;;;;;;;14.80;3.40;;;;;;;30.32;27.75;101004.61;107393;1257;112007;-62
2023/05/30 10:37:44;;;;;;;17.30;3.50;;;;;;;29.88;28.20;101007.59;107428;1254;109945;-63
2023/05/30 10:40:32;;;;;;;8.40;3.60;;;;;;;29.92;28.04;101007.58;107426;1258;108852;-61
2023/05/30 10:43:25;;;;;;;26.20;3.30;;;;;;;30.88;27.34;100996.41;107449;1254;97943;-62
2023/05/30 10:46:43;;;;;;;7.80;2.70;;;;;;;31.86;25.86;100988.90;107462;1254;97889;-62
2023/05/30 10:49:20;;;;;;;6.50;2.50;;;;;;;32.98;25.54;100983.70;107354;1254;113647;-62
2023/05/30 10:52:03;;;;;;;10.30;3.60;;;;;;;33.33;24.95;100983.34;107455;1254;110010;-61
2023/05/30 10:54:37;;;;;;;7.60;2.90;;;;;;;33.84;23.80;100979.44;107438;1254;105883;-62
2023/05/30 10:57:20;;;;;;;6.10;2.40;;;;;;;34.31;22.92;100977.05;107461;1254;97818;-60
2023/05/30 10:59:50;;;;;;;6.00;2.40;;;;;;;34.84;22.82;100975.80;107330;1254;97829;-60
2023/05/30 11:02:33;;;;;;;4.80;2.10;;;;;;;35.42;22.86;100972.19;107406;1254;111651;-61
2023/05/30 11:05:11;;;;;;;6.00;2.40;;;;;;;36.03;20.90;100968.57;107442;1254;108895;-61
2023/05/30 11:07:43;;;;;;;3.70;1.50;;;;;;;35.38;19.87;100971.79;107396;1258;108322;-61
2023/05/30 11:10:13;;;;;;;8.30;2.40;;;;;;;34.85;21.19;100969.59;107401;1254;97897;-62
2023/05/30 11:12:44;;;;;;;22.20;2.40;;;;;;;34.95;21.57;100968.27;107400;1259;97831;-61
2023/05/30 11:15:17;;;;;;;10.30;2.60;;;;;;;34.57;21.61;100963.60;107452;1254;111543;-62
2023/05/30 11:17:45;;;;;;;4.30;2.60;;;;;;;34.47;21.80;100964.25;107417;1254;109195;-62
2023/05/30 11:20:16;;;;;;;6.20;2.80;;;;;;;34.13;21.77;100969.81;107453;1254;108954;-62
2023/05/30 11:23:00;;;;;;;8.10;2.80;;;;;;;33.53;22.28;100966.65;107423;1254;97720;-61
2023/05/30 11:25:32;;;;;;;8.00;2.70;;;;;;;32.95;22.90;100961.66;107462;1253;96283;-63